Terminal Aerodrome Forecast
Issued by NWS Omaha/Valley, NE

Home | Current Version | Previous Version | Text Only | Print | Product List | Glossary On
Versions: 1 2 3 4 5 6 7 8 9 10 11 12 13 14 15
000
FTUS43 KOAX 261720
TAFOMA
TAF
KOMA 261720Z 2618/2718 16008KT P6SM VCSH OVC070
      TEMPO 2619/2622 07006KT 5SM -TSRA SCT015 BKN040CB
     FM262200 05006KT P6SM VCSH OVC070
     FM270000 02007KT P6SM BKN090
     FM270900 36008KT P6SM BKN020
     FM271500 36008KT P6SM SCT025=

USA.gov is the U.S. government's official web portal to all federal, state and local government web resources and services.